createdAt,value
2019-03-21T00:00:00.967Z,2.0
2019-03-21T00:10:00.984Z,2.2
2019-03-21T00:15:01.165Z,2.2
2019-03-21T00:20:00.975Z,2.3
2019-03-21T00:30:00.965Z,2.4
2019-03-21T00:40:01.035Z,2.5
2019-03-21T00:45:00.976Z,2.5
2019-03-21T00:55:01.029Z,2.4
2019-03-21T01:00:00.902Z,2.4
2019-03-21T01:05:00.967Z,2.3
2019-03-21T01:15:00.987Z,2.3
2019-03-21T01:30:00.926Z,2.4
2019-03-21T01:45:01.003Z,2.4
2019-03-21T02:00:01.106Z,2.4
2019-03-21T02:10:01.094Z,2.5
2019-03-21T02:15:01.025Z,2.5
2019-03-21T02:25:00.993Z,2.4
2019-03-21T02:30:00.943Z,2.4
2019-03-21T02:45:08.076Z,2.5
2019-03-21T03:00:01.233Z,2.5
2019-03-21T03:05:01.061Z,2.4
2019-03-21T03:10:00.946Z,2.3
2019-03-21T03:15:00.996Z,2.3
2019-03-21T03:30:00.943Z,2.3
2019-03-21T03:35:01.284Z,2.2
2019-03-21T03:40:00.921Z,2.1
2019-03-21T03:45:00.973Z,2.1
2019-03-21T03:50:00.977Z,2.0
2019-03-21T04:00:01.028Z,2.0
2019-03-21T04:10:01.029Z,1.9
2019-03-21T04:15:01.028Z,1.9
2019-03-21T04:20:02.058Z,1.8
2019-03-21T04:30:00.970Z,1.8
2019-03-21T04:45:00.980Z,1.8
2019-03-21T04:55:01.051Z,1.7
2019-03-21T05:00:03.523Z,1.7
2019-03-21T05:05:01.128Z,1.5
2019-03-21T05:15:01.096Z,1.4
2019-03-21T05:30:01.114Z,1.4
2019-03-21T05:35:01.111Z,1.5
2019-03-21T05:45:01.062Z,1.4
2019-03-21T05:50:01.017Z,1.3
2019-03-21T06:00:01.062Z,1.3
2019-03-21T06:05:01.146Z,1.4
2019-03-21T06:15:01.076Z,1.4
2019-03-21T06:20:03.698Z,1.5
2019-03-21T06:35:01.165Z,1.4
2019-03-21T06:45:01.103Z,1.5
2019-03-21T06:55:01.101Z,1.4
2019-03-21T07:00:01.053Z,1.4
2019-03-21T07:05:01.178Z,1.3
2019-03-21T07:15:01.157Z,1.2
2019-03-21T07:25:01.110Z,1.1
2019-03-21T07:30:01.055Z,1.1
2019-03-21T07:45:01.130Z,1.0
2019-03-21T07:50:02.258Z,1.1
2019-03-21T07:55:01.194Z,1.2
2019-03-21T08:00:01.094Z,1.2
2019-03-21T08:05:01.176Z,1.4
2019-03-21T08:10:01.097Z,1.5
2019-03-21T08:15:01.157Z,1.7
2019-03-21T08:25:01.938Z,1.9
2019-03-21T08:30:01.060Z,1.9
2019-03-21T08:35:01.117Z,2.0
2019-03-21T08:40:01.054Z,2.1
2019-03-21T08:45:01.192Z,2.3
2019-03-21T08:50:01.028Z,2.4
2019-03-21T09:00:01.070Z,2.4
2019-03-21T09:15:01.192Z,2.3
2019-03-21T09:25:01.156Z,2.2
2019-03-21T09:30:01.072Z,2.2
2019-03-21T09:40:01.233Z,2.3
2019-03-21T09:45:01.195Z,2.3
2019-03-21T09:50:01.084Z,2.4
2019-03-21T09:55:01.170Z,2.3
2019-03-21T10:00:01.103Z,2.3
2019-03-21T10:10:01.154Z,2.2
2019-03-21T10:15:01.221Z,2.2
2019-03-21T10:25:01.705Z,2.1
2019-03-21T10:30:06.118Z,2.1
2019-03-21T10:45:01.088Z,2.1
2019-03-21T10:50:01.137Z,2.2
2019-03-21T10:55:01.168Z,2.3
2019-03-21T11:00:01.857Z,2.3
2019-03-21T11:15:01.232Z,2.3
2019-03-21T11:20:01.091Z,2.2
2019-03-21T11:30:01.240Z,2.2
2019-03-21T11:45:01.235Z,2.2
2019-03-21T11:50:01.135Z,2.3
2019-03-21T12:00:01.263Z,2.3
2019-03-21T12:05:01.199Z,2.2
2019-03-21T12:15:01.155Z,2.2
2019-03-21T12:30:01.192Z,2.3
2019-03-21T12:45:01.207Z,2.2
2019-03-21T13:00:01.277Z,2.2
2019-03-21T13:05:01.200Z,2.3
2019-03-21T13:15:01.278Z,2.2
2019-03-21T13:30:03.432Z,2.2
2019-03-21T13:40:01.276Z,2.4
2019-03-21T13:45:01.197Z,2.4
2019-03-21T13:55:01.281Z,2.5
2019-03-21T14:00:01.159Z,2.5
2019-03-21T14:05:01.270Z,2.6
2019-03-21T14:15:01.319Z,2.5
2019-03-21T14:30:02.236Z,2.4
2019-03-21T14:35:01.244Z,2.5
2019-03-21T14:45:01.261Z,2.5
2019-03-21T14:55:01.307Z,2.6
2019-03-21T15:00:01.143Z,2.5
2019-03-21T15:05:01.129Z,2.6
2019-03-21T15:15:01.218Z,2.6
2019-03-21T15:30:01.331Z,2.6
2019-03-21T15:45:10.556Z,2.5
2019-03-21T15:55:01.216Z,2.6
2019-03-21T16:00:01.146Z,2.6
2019-03-21T16:10:01.228Z,2.5
2019-03-21T16:15:01.273Z,2.5
2019-03-21T16:20:01.124Z,2.4
2019-03-21T16:30:01.274Z,2.3
2019-03-21T16:35:01.210Z,2.4
2019-03-21T16:45:01.285Z,2.5
2019-03-21T17:00:06.270Z,2.5
2019-03-21T17:10:01.317Z,2.4
2019-03-21T17:15:01.219Z,2.5
2019-03-21T17:25:06.271Z,2.4
2019-03-21T17:30:01.298Z,2.4
2019-03-21T17:40:01.274Z,2.3
2019-03-21T17:45:01.225Z,2.4
2019-03-21T18:01:01.197Z,2.4
2019-03-21T18:06:01.271Z,2.3
2019-03-21T18:16:01.254Z,2.2
2019-03-21T18:26:01.206Z,2.3
2019-03-21T18:41:02.234Z,2.4
2019-03-21T18:46:01.258Z,2.3
2019-03-21T19:01:01.213Z,2.3
2019-03-21T19:06:01.305Z,2.2
2019-03-21T19:11:01.115Z,2.3
2019-03-21T19:26:01.314Z,2.3
2019-03-21T19:41:01.232Z,2.3
2019-03-21T19:46:01.244Z,2.4
2019-03-21T19:51:01.173Z,2.3
2019-03-21T19:56:08.239Z,2.4
2019-03-21T20:01:01.145Z,2.3
2019-03-21T20:16:01.265Z,2.2
2019-03-21T20:26:01.240Z,2.3
2019-03-21T20:36:01.218Z,2.4
2019-03-21T20:51:01.208Z,2.4
2019-03-21T21:06:01.835Z,2.4
2019-03-21T21:16:01.385Z,2.3
2019-03-21T21:21:01.119Z,2.2
2019-03-21T21:26:05.621Z,2.1
2019-03-21T21:31:01.151Z,2.0
2019-03-21T21:36:01.217Z,1.9
2019-03-21T21:41:01.152Z,1.8
2019-03-21T21:46:01.201Z,1.7
2019-03-21T21:51:01.233Z,1.6
2019-03-21T22:06:01.283Z,1.6
2019-03-21T22:16:01.209Z,1.5
2019-03-21T22:21:01.145Z,1.4
2019-03-21T22:31:01.246Z,1.3
2019-03-21T22:41:01.216Z,1.2
2019-03-21T22:56:01.227Z,1.2
2019-03-21T23:06:01.310Z,1.3
2019-03-21T23:21:01.307Z,1.3
2019-03-21T23:36:01.291Z,1.2
2019-03-21T23:41:01.130Z,1.1
2019-03-21T23:51:01.214Z,1.0
